Time;durP1;ratioP1;P1;durP2;ratioP2;P2;SDS_P1;SDS_P2;PMS_P1;PMS_P2;Temp;Humidity;BMP_temperature;BMP_pressure;BME280_temperature;BME280_humidity;BME280_pressure;Samples;Min_cycle;Max_cycle;Signal;HPM_P1;HPM_P2
2022/07/12 00:02:03;;;;;;;4.88;4.35;;;;;;;17.63;98.61;102234.84;4957881;28;20039;-76
2022/07/12 00:04:28;;;;;;;5.00;4.50;;;;;;;17.58;97.33;102234.72;4973532;28;20022;-76
2022/07/12 00:06:54;;;;;;;6.10;4.25;;;;;;;17.55;98.90;102236.03;4975083;28;20418;-76
2022/07/12 00:09:20;;;;;;;6.05;4.50;;;;;;;17.42;99.16;102234.38;4955614;28;20031;-74
2022/07/12 00:11:45;;;;;;;5.95;4.32;;;;;;;17.38;99.44;102227.72;4936155;29;20083;-74
2022/07/12 00:14:10;;;;;;;8.13;4.20;;;;;;;17.30;99.57;102220.69;4935176;29;20039;-76
2022/07/12 00:16:36;;;;;;;5.28;4.22;;;;;;;17.28;100.00;102206.41;4956815;28;20033;-74
2022/07/12 00:19:02;;;;;;;5.47;4.05;;;;;;;17.26;100.00;102213.19;4974660;28;20043;-76
2022/07/12 00:21:27;;;;;;;8.50;4.40;;;;;;;17.30;100.00;102211.63;4974172;28;20366;-75
2022/07/12 00:23:53;;;;;;;7.38;4.50;;;;;;;17.29;100.00;102215.44;4974715;28;20061;-76
2022/07/12 00:26:18;;;;;;;4.95;3.83;;;;;;;17.26;100.00;102202.25;4973311;28;20121;-74
2022/07/12 00:28:44;;;;;;;4.82;4.05;;;;;;;17.28;100.00;102220.06;4965249;28;20027;-76
2022/07/12 00:31:09;;;;;;;4.78;4.10;;;;;;;17.29;100.00;102218.19;4961652;28;20413;-77
2022/07/12 00:33:35;;;;;;;8.05;4.15;;;;;;;17.15;100.00;102220.28;4973092;28;20081;-75
2022/07/12 00:36:00;;;;;;;5.60;3.97;;;;;;;17.08;100.00;102216.84;4973113;28;20030;-75
2022/07/12 00:38:26;;;;;;;4.45;4.00;;;;;;;17.03;100.00;102214.81;4972973;28;20481;-74
2022/07/12 00:40:51;;;;;;;6.50;4.30;;;;;;;16.97;100.00;102215.78;4974600;28;20076;-75
2022/07/12 00:43:16;;;;;;;8.05;3.80;;;;;;;17.01;100.00;102211.47;4974220;28;20366;-74
2022/07/12 00:45:42;;;;;;;4.22;3.80;;;;;;;16.99;100.00;102211.72;4964312;28;20501;-73
2022/07/12 00:48:08;;;;;;;6.15;4.55;;;;;;;16.97;100.00;102223.97;4949801;29;20046;-73
2022/07/12 00:50:33;;;;;;;7.53;4.20;;;;;;;16.88;100.00;102217.16;4936140;28;20057;-75
2022/07/12 00:52:58;;;;;;;4.72;3.67;;;;;;;16.82;100.00;102214.25;4950457;29;20042;-73
2022/07/12 00:55:25;;;;;;;5.13;3.88;;;;;;;16.84;100.00;102217.59;4935647;29;20111;-72
2022/07/12 00:57:50;;;;;;;4.22;3.80;;;;;;;16.79;100.00;102212.00;4934142;29;20055;-72
2022/07/12 01:00:19;;;;;;;6.20;4.00;;;;;;;16.83;100.00;102213.22;4945623;28;20502;-75
2022/07/12 01:02:46;;;;;;;4.45;3.70;;;;;;;16.80;100.00;102213.66;4971798;28;20027;-73
2022/07/12 01:05:11;;;;;;;8.65;4.03;;;;;;;16.72;100.00;102213.16;4951772;28;20461;-74
2022/07/12 01:07:37;;;;;;;4.20;3.80;;;;;;;16.68;100.00;102212.78;4935365;29;20027;-75
2022/07/12 01:10:04;;;;;;;4.82;3.80;;;;;;;16.67;100.00;102216.59;4935552;29;20480;-75
2022/07/12 01:12:30;;;;;;;5.10;3.95;;;;;;;16.62;100.00;102219.19;4935282;29;20475;-74
2022/07/12 01:14:56;;;;;;;7.07;3.92;;;;;;;16.54;100.00;102211.31;4945037;28;20042;-75
2022/07/12 01:17:24;;;;;;;5.53;3.72;;;;;;;16.55;100.00;102218.47;4972399;28;20026;-72
2022/07/12 01:19:51;;;;;;;6.55;3.90;;;;;;;16.46;100.00;102216.03;4973995;28;20489;-76
2022/07/12 01:22:18;;;;;;;7.60;4.20;;;;;;;16.43;100.00;102221.13;4973535;28;20459;-72
2022/07/12 01:24:44;;;;;;;6.07;4.03;;;;;;;16.40;100.00;102229.81;4952536;28;20534;-76
2022/07/12 01:27:11;;;;;;;4.30;3.90;;;;;;;16.40;100.00;102227.91;4956772;28;20059;-74
2022/07/12 01:29:36;;;;;;;6.65;3.90;;;;;;;16.35;100.00;102226.91;4972319;28;20503;-75
2022/07/12 01:32:24;;;;;;;5.05;3.90;;;;;;;16.30;100.00;102227.59;4972491;28;20117;-77
2022/07/12 01:34:59;;;;;;;6.07;3.72;;;;;;;16.33;100.00;102232.59;4972030;28;20057;-76
2022/07/12 01:37:30;;;;;;;4.88;3.42;;;;;;;16.35;100.00;102226.91;4972193;28;20031;-73
2022/07/12 01:39:58;;;;;;;4.55;3.20;;;;;;;16.37;100.00;102233.00;4972475;28;20027;-75
2022/07/12 01:42:31;;;;;;;5.85;3.58;;;;;;;16.29;100.00;102228.69;4970413;28;20022;-75
2022/07/12 01:45:06;;;;;;;4.70;3.70;;;;;;;16.24;100.00;102239.44;4949798;28;20044;-73
2022/07/12 01:47:44;;;;;;;4.38;3.55;;;;;;;16.17;100.00;102228.63;4949178;29;20028;-73
2022/07/12 01:50:22;;;;;;;4.05;3.33;;;;;;;16.20;100.00;102222.69;4949507;29;20366;-74
2022/07/12 01:52:56;;;;;;;6.93;3.33;;;;;;;16.12;100.00;102229.31;4949448;29;20081;-75
2022/07/12 01:55:23;;;;;;;3.42;3.15;;;;;;;16.04;100.00;102213.22;4953027;28;20024;-76
2022/07/12 01:57:49;;;;;;;3.80;3.42;;;;;;;16.01;100.00;102224.59;4933724;29;20031;-74
2022/07/12 02:00:15;;;;;;;5.07;3.22;;;;;;;16.05;100.00;102217.63;4933714;29;20363;-76
2022/07/12 02:02:40;;;;;;;5.03;3.38;;;;;;;16.01;100.00;102219.13;4931292;29;20098;-74
2022/07/12 02:05:06;;;;;;;5.70;3.60;;;;;;;15.98;100.00;102218.75;4933679;29;20430;-74
2022/07/12 02:07:32;;;;;;;4.88;3.13;;;;;;;16.00;100.00;102217.44;4933464;29;20027;-74
2022/07/12 02:09:58;;;;;;;5.07;3.35;;;;;;;15.97;100.00;102222.53;4956239;28;20366;-73
2022/07/12 02:12:24;;;;;;;6.20;3.33;;;;;;;15.91;100.00;102218.81;4975548;28;20088;-74
2022/07/12 02:14:50;;;;;;;4.55;3.40;;;;;;;15.88;100.00;102222.00;4959033;28;20102;-73
2022/07/12 02:17:16;;;;;;;6.03;3.58;;;;;;;15.87;100.00;102217.63;4953283;29;20035;-73
2022/07/12 02:19:42;;;;;;;3.60;3.30;;;;;;;15.88;100.00;102224.72;4938110;29;20043;-75
2022/07/12 02:22:07;;;;;;;4.43;3.50;;;;;;;15.84;100.00;102209.91;4952998;29;20023;-75
2022/07/12 02:24:32;;;;;;;5.25;3.40;;;;;;;15.84;100.00;102212.63;4957353;28;20062;-75
2022/07/12 02:27:24;;;;;;;3.72;3.10;;;;;;;15.93;100.00;102216.72;4975659;28;20023;-77
2022/07/12 02:29:50;;;;;;;6.72;3.53;;;;;;;15.76;100.00;102209.09;4975396;28;20022;-75
2022/07/12 02:32:15;;;;;;;5.80;3.33;;;;;;;15.76;100.00;102206.38;4976577;28;20524;-74
2022/07/12 02:34:40;;;;;;;5.53;3.25;;;;;;;15.76;100.00;102217.28;4976492;28;20466;-77
2022/07/12 02:37:05;;;;;;;5.22;3.45;;;;;;;15.70;100.00;102211.88;4948458;28;20023;-76
2022/07/12 02:39:31;;;;;;;4.70;3.17;;;;;;;15.68;100.00;102211.28;4944979;28;20417;-76
2022/07/12 02:41:56;;;;;;;5.18;3.47;;;;;;;15.70;100.00;102214.59;4976310;28;20039;-75
2022/07/12 02:44:21;;;;;;;4.53;3.17;;;;;;;15.73;100.00;102217.75;4976270;28;20027;-74
2022/07/12 02:46:47;;;;;;;5.63;3.40;;;;;;;15.72;100.00;102220.69;4976040;28;20019;-75
2022/07/12 02:49:12;;;;;;;5.82;3.17;;;;;;;15.69;100.00;102218.41;4976427;28;20366;-77
2022/07/12 02:51:37;;;;;;;5.07;3.30;;;;;;;15.62;100.00;102215.75;4976288;28;20073;-74
2022/07/12 02:54:08;;;;;;;5.40;3.47;;;;;;;15.69;100.00;102221.16;4974578;28;20043;-76
2022/07/12 02:56:34;;;;;;;5.97;3.80;;;;;;;15.65;100.00;102219.91;4975990;28;20027;-73
2022/07/12 02:58:59;;;;;;;5.38;3.70;;;;;;;15.64;100.00;102219.09;4946026;28;20471;-73
2022/07/12 03:01:24;;;;;;;4.40;3.63;;;;;;;15.64;100.00;102213.63;4934131;29;20034;-73
2022/07/12 03:03:49;;;;;;;4.60;3.60;;;;;;;15.66;100.00;102216.13;4937531;29;20027;-73
2022/07/12 03:06:15;;;;;;;8.98;3.83;;;;;;;15.59;100.00;102216.19;4937958;29;20130;-73
2022/07/12 03:08:40;;;;;;;4.97;3.70;;;;;;;15.64;100.00;102210.91;4940084;28;20032;-73
2022/07/12 03:11:06;;;;;;;4.32;3.30;;;;;;;15.64;100.00;102212.78;4974783;28;20113;-73
2022/07/12 03:13:31;;;;;;;8.80;3.85;;;;;;;15.53;100.00;102211.63;4976070;28;20041;-73
2022/07/12 03:15:56;;;;;;;4.28;3.70;;;;;;;15.60;100.00;102213.25;4975967;28;20106;-73
2022/07/12 03:18:22;;;;;;;5.63;4.35;;;;;;;15.60;100.00;102206.97;4974393;28;20102;-73
2022/07/12 03:20:48;;;;;;;4.85;4.07;;;;;;;15.59;100.00;102213.47;4959120;28;20474;-73
2022/07/12 03:23:14;;;;;;;4.97;4.47;;;;;;;15.58;100.00;102217.28;4953980;28;20445;-73
2022/07/12 03:25:39;;;;;;;5.30;4.10;;;;;;;15.61;100.00;102200.44;4975532;28;20106;-73
2022/07/12 03:28:04;;;;;;;5.40;4.90;;;;;;;15.57;100.00;102213.69;4976003;28;20026;-73
2022/07/12 03:30:30;;;;;;;6.53;4.65;;;;;;;15.62;100.00;102209.47;4975403;28;20025;-73
2022/07/12 03:32:55;;;;;;;6.80;5.18;;;;;;;15.57;100.00;102208.22;4975688;28;20054;-73
2022/07/12 03:35:20;;;;;;;5.32;4.82;;;;;;;15.57;100.00;102207.41;4975195;28;20027;-73
2022/07/12 03:37:49;;;;;;;6.32;4.40;;;;;;;15.60;100.00;102207.78;4975120;28;20380;-73
2022/07/12 03:40:16;;;;;;;7.85;4.60;;;;;;;15.69;100.00;102211.06;4971674;28;20118;-73
2022/07/12 03:42:43;;;;;;;8.02;4.93;;;;;;;15.70;100.00;102223.66;4965140;28;20027;-73
2022/07/12 03:45:09;;;;;;;9.27;4.88;;;;;;;15.72;100.00;102223.41;4954884;29;20031;-73
2022/07/12 03:47:35;;;;;;;5.95;4.25;;;;;;;15.68;100.00;102225.75;4955904;28;20033;-73
2022/07/12 03:50:04;;;;;;;5.95;4.82;;;;;;;15.60;100.00;102217.88;4954738;28;20031;-72
2022/07/12 03:52:30;;;;;;;5.10;4.65;;;;;;;15.65;100.00;102218.00;4955542;28;20090;-73
2022/07/12 03:54:55;;;;;;;5.35;4.57;;;;;;;15.63;100.00;102227.50;4972375;28;20036;-73
2022/07/12 03:57:20;;;;;;;5.28;4.38;;;;;;;15.68;100.00;102223.03;4974992;28;20078;-72
2022/07/12 03:59:46;;;;;;;5.30;4.70;;;;;;;15.65;100.00;102228.09;4975236;28;20075;-73
2022/07/12 04:02:12;;;;;;;5.15;4.57;;;;;;;15.64;100.00;102224.56;4972487;28;20493;-73
2022/07/12 04:04:38;;;;;;;5.40;4.60;;;;;;;15.68;100.00;102220.28;4961981;28;20039;-73
2022/07/12 04:07:04;;;;;;;7.30;4.70;;;;;;;15.59;100.00;102213.47;4954457;28;20114;-73
2022/07/12 04:09:30;;;;;;;6.25;5.00;;;;;;;15.63;100.00;102211.13;4969633;28;20059;-73
2022/07/12 04:11:55;;;;;;;6.22;5.00;;;;;;;15.63;100.00;102206.50;4975049;28;20501;-73
2022/07/12 04:14:21;;;;;;;6.07;5.05;;;;;;;15.72;100.00;102212.50;4975182;28;20035;-73
2022/07/12 04:16:46;;;;;;;6.68;5.75;;;;;;;15.72;100.00;102210.59;4974395;28;20042;-73
2022/07/12 04:19:12;;;;;;;6.25;5.25;;;;;;;15.76;100.00;102213.69;4974438;28;20453;-73
2022/07/12 04:21:38;;;;;;;6.47;5.00;;;;;;;15.66;100.00;102219.69;4974517;28;20105;-73
2022/07/12 04:24:05;;;;;;;7.25;5.32;;;;;;;15.69;100.00;102216.50;4972435;28;20447;-73
2022/07/12 04:26:30;;;;;;;6.00;5.22;;;;;;;15.69;100.00;102221.16;4961042;28;20375;-73
2022/07/12 04:28:55;;;;;;;8.93;5.40;;;;;;;15.77;100.00;102227.16;4934654;29;20020;-73
2022/07/12 04:31:20;;;;;;;8.23;5.28;;;;;;;15.80;100.00;102222.31;4936145;29;20474;-73
2022/07/12 04:33:46;;;;;;;9.15;5.22;;;;;;;15.80;100.00;102227.78;4935036;29;20107;-73
2022/07/12 04:36:11;;;;;;;8.52;5.35;;;;;;;15.80;100.00;102225.88;4936211;29;20027;-72
2022/07/12 04:38:37;;;;;;;9.48;5.30;;;;;;;15.88;100.00;102241.13;4934574;29;20028;-73
2022/07/12 04:41:02;;;;;;;9.40;5.97;;;;;;;15.87;100.00;102239.47;4959071;28;20042;-72
2022/07/12 04:43:28;;;;;;;11.02;5.53;;;;;;;15.83;100.00;102236.34;4974297;28;20034;-73
2022/07/12 04:45:53;;;;;;;11.68;5.28;;;;;;;15.82;100.00;102225.66;4972845;28;20034;-73
2022/07/12 04:48:18;;;;;;;17.42;5.90;;;;;;;15.83;100.00;102232.78;4961170;28;20471;-73
2022/07/12 04:50:44;;;;;;;6.82;6.07;;;;;;;15.88;100.00;102232.94;4935651;29;20383;-73
2022/07/12 04:53:09;;;;;;;11.52;5.70;;;;;;;15.87;100.00;102237.56;4935896;29;20059;-73
2022/07/12 04:55:35;;;;;;;7.75;5.80;;;;;;;15.88;100.00;102238.38;4935668;29;20036;-73
2022/07/12 04:58:00;;;;;;;8.13;5.75;;;;;;;15.92;100.00;102232.25;4971116;28;20090;-73
2022/07/12 05:00:26;;;;;;;7.40;5.63;;;;;;;15.95;100.00;102225.50;4972926;28;20037;-73
2022/07/12 05:02:51;;;;;;;11.10;5.53;;;;;;;16.08;100.00;102230.81;4972862;28;20037;-73
2022/07/12 05:05:16;;;;;;;5.85;4.75;;;;;;;16.18;100.00;102238.47;4945507;28;20027;-73
2022/07/12 05:07:42;;;;;;;8.10;5.20;;;;;;;16.26;100.00;102234.56;4935368;29;20114;-73
2022/07/12 05:10:08;;;;;;;12.40;5.57;;;;;;;16.33;100.00;102240.78;4935722;29;20035;-73
2022/07/12 05:12:36;;;;;;;9.55;5.85;;;;;;;16.41;100.00;102245.97;4935807;28;20118;-73
2022/07/12 05:15:03;;;;;;;8.95;5.60;;;;;;;16.50;100.00;102245.63;4972668;28;20027;-73
2022/07/12 05:17:29;;;;;;;20.17;6.30;;;;;;;16.46;100.00;102239.81;4972732;28;20062;-73
2022/07/12 05:19:55;;;;;;;22.80;6.53;;;;;;;16.58;100.00;102250.78;4973593;28;20096;-73
2022/07/12 05:22:20;;;;;;;12.52;6.93;;;;;;;16.63;100.00;102256.38;4972541;28;20050;-73
2022/07/12 05:24:46;;;;;;;10.68;6.38;;;;;;;16.69;100.00;102251.91;4959997;28;20558;-72
2022/07/12 05:27:11;;;;;;;11.30;5.97;;;;;;;16.73;100.00;102258.59;4937901;28;20102;-72
2022/07/12 05:29:36;;;;;;;10.38;5.95;;;;;;;16.74;100.00;102261.06;4972363;28;20100;-73
2022/07/12 05:32:02;;;;;;;9.40;6.63;;;;;;;16.84;100.00;102266.78;4965572;28;20035;-73
2022/07/12 05:34:28;;;;;;;9.88;6.35;;;;;;;16.88;100.00;102269.94;4934100;29;20024;-73
2022/07/12 05:36:54;;;;;;;9.82;5.55;;;;;;;16.91;100.00;102276.84;4949400;28;20939;-73
2022/07/12 05:39:20;;;;;;;7.60;6.05;;;;;;;16.95;100.00;102278.91;4949711;29;20023;-73
2022/07/12 05:41:46;;;;;;;10.50;6.38;;;;;;;17.03;100.00;102280.47;4949594;28;20031;-73
2022/07/12 05:44:23;;;;;;;6.90;6.07;;;;;;;17.12;100.00;102294.59;4950812;28;20028;-73
2022/07/12 05:46:49;;;;;;;12.35;7.43;;;;;;;17.19;100.00;102289.88;4953997;28;20051;-73
2022/07/12 05:49:15;;;;;;;10.80;6.82;;;;;;;17.21;100.00;102295.13;4955945;29;20031;-73
2022/07/12 05:54:28;;;;;;;10.45;6.82;;;;;;;17.33;100.00;102301.44;4977449;28;20033;-73
2022/07/12 05:56:58;;;;;;;8.57;6.80;;;;;;;17.37;100.00;102302.66;4975831;28;20026;-73
2022/07/12 05:59:31;;;;;;;11.82;7.18;;;;;;;17.40;100.00;102304.09;4976019;28;20374;-73
2022/07/12 06:02:04;;;;;;;9.20;7.47;;;;;;;17.42;100.00;102300.06;4973438;28;20050;-73
2022/07/12 06:04:31;;;;;;;12.85;8.30;;;;;;;17.51;100.00;102306.84;4967343;28;20110;-73
2022/07/12 06:06:56;;;;;;;14.63;7.75;;;;;;;17.58;100.00;102297.69;4974471;28;20241;-73
2022/07/12 06:09:22;;;;;;;10.15;7.95;;;;;;;17.57;100.00;102306.97;4975830;28;20023;-73
2022/07/12 06:11:47;;;;;;;9.27;7.78;;;;;;;17.61;100.00;102305.41;4975575;28;20105;-73
2022/07/12 06:14:13;;;;;;;11.30;7.90;;;;;;;17.65;100.00;102304.72;4975823;28;20369;-73
2022/07/12 06:16:38;;;;;;;9.23;7.75;;;;;;;17.73;100.00;102311.72;4976882;28;20120;-73
2022/07/12 06:19:03;;;;;;;11.30;8.85;;;;;;;17.82;100.00;102312.22;4976748;28;20039;-73
2022/07/12 06:21:29;;;;;;;12.20;9.20;;;;;;;17.85;100.00;102309.81;4975066;28;20450;-73
2022/07/12 06:23:54;;;;;;;9.65;8.60;;;;;;;17.88;100.00;102308.53;4966781;28;20516;-73
2022/07/12 06:26:20;;;;;;;9.77;8.77;;;;;;;17.95;100.00;102311.16;4957685;28;20026;-73
2022/07/12 06:28:45;;;;;;;12.20;9.60;;;;;;;18.02;100.00;102315.44;4957401;28;20062;-73
2022/07/12 06:31:11;;;;;;;10.32;7.63;;;;;;;18.19;100.00;102310.06;4957477;28;20073;-72
2022/07/12 06:33:36;;;;;;;9.25;8.25;;;;;;;18.24;100.00;102310.19;4957687;28;20031;-73
2022/07/12 06:36:02;;;;;;;8.02;7.22;;;;;;;18.30;100.00;102304.78;4969324;28;20019;-73
2022/07/12 06:38:27;;;;;;;11.10;8.73;;;;;;;18.37;100.00;102310.97;4991545;28;20058;-73
2022/07/12 06:40:52;;;;;;;11.55;8.55;;;;;;;18.41;100.00;102306.69;4975153;28;20034;-73
2022/07/12 06:43:18;;;;;;;14.13;9.13;;;;;;;18.50;99.35;102309.88;4976255;28;20039;-73
2022/07/12 06:45:43;;;;;;;12.98;8.70;;;;;;;18.56;99.59;102308.91;4962023;28;20459;-73
2022/07/12 06:48:09;;;;;;;11.05;8.45;;;;;;;18.67;100.00;102313.50;4936386;29;20364;-73
2022/07/12 06:50:34;;;;;;;13.05;8.52;;;;;;;18.72;96.76;102318.25;4965475;28;20023;-73
2022/07/12 06:52:59;;;;;;;9.93;8.88;;;;;;;18.76;93.79;102317.53;4955598;28;20011;-73
2022/07/12 06:55:26;;;;;;;11.05;8.98;;;;;;;18.84;92.43;102327.31;4955065;28;20379;-73
2022/07/12 06:57:51;;;;;;;11.63;9.45;;;;;;;18.83;92.59;102319.31;4955440;28;20390;-74
2022/07/12 07:00:17;;;;;;;11.05;8.27;;;;;;;18.86;93.62;102316.94;4955413;29;20027;-73
2022/07/12 07:02:42;;;;;;;13.40;7.97;;;;;;;18.93;93.07;102311.28;4952994;28;20027;-73
2022/07/12 07:05:08;;;;;;;16.88;8.73;;;;;;;19.01;94.82;102310.06;4966345;28;20049;-73
2022/07/12 07:07:34;;;;;;;11.90;9.07;;;;;;;19.07;93.47;102312.66;4955267;28;20027;-74
2022/07/12 07:09:59;;;;;;;17.30;9.20;;;;;;;19.16;92.36;102312.25;4936196;29;20059;-73
2022/07/12 07:12:25;;;;;;;12.05;8.27;;;;;;;19.27;92.02;102322.34;4937371;29;20456;-74
2022/07/12 07:14:50;;;;;;;13.40;8.57;;;;;;;19.33;90.77;102315.84;4935774;29;20090;-74
2022/07/12 07:17:17;;;;;;;13.43;8.52;;;;;;;19.36;88.92;102325.50;4936236;29;20452;-73
2022/07/12 07:19:43;;;;;;;9.18;7.85;;;;;;;19.39;87.66;102316.78;4951455;29;20043;-73
2022/07/12 07:22:09;;;;;;;22.45;8.10;;;;;;;19.50;88.59;102318.59;4951555;28;20035;-73
2022/07/12 07:24:34;;;;;;;12.13;7.25;;;;;;;19.54;83.86;102316.22;4936097;29;20027;-74
2022/07/12 07:27:00;;;;;;;8.07;6.13;;;;;;;19.58;84.50;102309.97;4935835;29;20103;-73
2022/07/12 07:32:09;;;;;;;6.20;4.55;;;;;;;19.82;81.39;102318.03;4956385;29;20545;-75
2022/07/12 07:34:35;;;;;;;6.20;4.35;;;;;;;19.85;79.94;102314.78;4959094;28;20068;-71
2022/07/12 07:37:00;;;;;;;5.50;4.57;;;;;;;19.86;79.04;102318.38;4954343;28;20356;-71
2022/07/12 07:39:25;;;;;;;5.47;4.93;;;;;;;20.00;80.41;102319.66;4970471;28;20157;-72
2022/07/12 07:41:51;;;;;;;5.68;5.15;;;;;;;20.05;80.19;102310.66;4974935;28;20076;-72
2022/07/12 07:44:16;;;;;;;7.45;5.63;;;;;;;20.07;79.31;102312.09;4975013;28;20027;-72
2022/07/12 07:46:41;;;;;;;6.32;3.50;;;;;;;20.06;77.77;102304.91;4974160;28;20030;-72
2022/07/12 07:49:09;;;;;;;4.20;3.53;;;;;;;20.05;77.27;102305.16;4975227;28;20031;-72
2022/07/12 07:51:34;;;;;;;3.53;3.22;;;;;;;20.04;77.05;102311.78;4969562;28;20031;-72
2022/07/12 07:54:00;;;;;;;6.07;3.55;;;;;;;20.01;75.42;102302.94;4954499;28;20163;-71
2022/07/12 07:56:25;;;;;;;5.07;3.53;;;;;;;20.05;75.99;102310.66;4956815;28;20054;-71
2022/07/12 07:58:51;;;;;;;6.47;3.67;;;;;;;20.07;76.18;102309.34;4966562;28;20105;-71
2022/07/12 08:01:17;;;;;;;4.78;3.40;;;;;;;20.15;76.36;102308.06;4958593;28;20433;-71
2022/07/12 08:03:42;;;;;;;6.65;3.53;;;;;;;20.21;76.70;102309.78;4973838;28;20118;-71
2022/07/12 08:06:07;;;;;;;4.50;3.17;;;;;;;20.25;76.39;102313.69;4973548;28;20034;-71
2022/07/12 08:08:32;;;;;;;5.40;3.63;;;;;;;20.34;76.93;102317.66;4953385;28;20341;-71
2022/07/12 08:10:58;;;;;;;5.40;3.72;;;;;;;20.43;75.36;102314.47;4953351;28;20039;-71
2022/07/12 08:13:23;;;;;;;4.50;3.80;;;;;;;20.43;74.34;102303.50;4941303;28;20036;-72
2022/07/12 08:15:49;;;;;;;3.75;3.40;;;;;;;20.49;76.07;102314.28;4958036;28;20029;-72
2022/07/12 08:18:15;;;;;;;6.53;3.90;;;;;;;20.48;74.70;102314.53;4963452;28;20451;-72
2022/07/12 08:20:40;;;;;;;4.60;3.83;;;;;;;20.50;74.81;102306.84;4954166;29;20074;-72
2022/07/12 08:23:06;;;;;;;5.53;4.13;;;;;;;20.56;74.08;102308.56;4956063;28;20066;-72
2022/07/12 08:25:31;;;;;;;4.57;3.95;;;;;;;20.59;73.72;102308.06;4955334;28;20023;-72
2022/07/12 08:27:56;;;;;;;9.32;5.15;;;;;;;20.61;72.53;102313.28;4947640;28;20475;-72
2022/07/12 08:30:22;;;;;;;6.20;3.50;;;;;;;20.66;73.38;102316.97;4947468;29;20059;-72
2022/07/12 08:32:47;;;;;;;7.60;5.05;;;;;;;20.64;72.20;102327.38;4939846;29;20019;-72
2022/07/12 08:35:14;;;;;;;15.27;5.10;;;;;;;20.69;72.79;102321.13;4954422;28;20114;-73
2022/07/12 08:37:40;;;;;;;5.32;4.55;;;;;;;20.81;73.64;102332.00;4948772;28;20039;-73
2022/07/12 08:40:06;;;;;;;5.75;5.05;;;;;;;20.80;73.55;102325.66;4950515;29;20035;-73
2022/07/12 08:42:32;;;;;;;8.90;4.60;;;;;;;20.82;71.59;102323.50;4935927;29;20070;-74
2022/07/12 08:44:58;;;;;;;6.78;4.30;;;;;;;20.78;70.80;102322.34;4935717;29;20047;-71
2022/07/12 08:47:24;;;;;;;5.45;4.45;;;;;;;20.79;71.15;102324.00;4936053;29;20031;-72
2022/07/12 08:50:19;;;;;;;5.00;4.00;;;;;;;20.83;72.40;102329.81;4940346;29;20110;-72
2022/07/12 08:52:46;;;;;;;6.80;4.65;;;;;;;20.81;71.78;102332.81;4953112;29;20023;-73
2022/07/12 08:55:16;;;;;;;5.63;4.40;;;;;;;20.77;71.39;102339.09;4954896;28;20074;-73
2022/07/12 08:57:42;;;;;;;5.20;4.55;;;;;;;20.81;70.60;102343.00;4953418;29;20123;-72
2022/07/12 09:00:08;;;;;;;5.88;4.40;;;;;;;20.81;71.12;102335.56;4954706;28;20559;-72
2022/07/12 09:02:55;;;;;;;6.40;3.65;;;;;;;20.94;71.83;102339.84;4952463;28;20027;-73
2022/07/12 09:05:27;;;;;;;6.30;4.75;;;;;;;20.99;71.08;102339.06;4954783;28;20507;-71
2022/07/12 09:08:05;;;;;;;4.50;4.10;;;;;;;21.09;71.42;102338.34;4949031;28;20034;-73
2022/07/12 09:10:31;;;;;;;7.38;4.70;;;;;;;21.21;71.69;102339.84;4955062;28;20110;-72
2022/07/12 09:12:56;;;;;;;4.90;4.30;;;;;;;21.34;71.00;102340.50;4954481;28;20039;-73
2022/07/12 09:15:23;;;;;;;7.70;5.22;;;;;;;21.34;70.06;102340.50;4954935;29;20027;-74
2022/07/12 09:18:03;;;;;;;6.57;4.93;;;;;;;21.34;69.29;102335.81;4954172;28;20470;-72
2022/07/12 09:20:31;;;;;;;6.00;5.03;;;;;;;21.22;68.35;102329.66;4953056;28;20078;-73
2022/07/12 09:22:59;;;;;;;6.43;4.53;;;;;;;21.27;68.98;102331.63;4953017;28;20097;-73
2022/07/12 09:25:25;;;;;;;6.68;4.25;;;;;;;21.47;68.53;102333.72;4953436;28;20059;-74
2022/07/12 09:27:52;;;;;;;6.82;4.00;;;;;;;21.53;67.32;102330.78;4953125;28;20062;-73
2022/07/12 09:30:19;;;;;;;5.05;3.28;;;;;;;21.69;68.34;102319.88;4954611;28;20085;-74
2022/07/12 09:38:19;;;;;;;4.35;3.95;;;;;;;22.19;66.90;102313.00;4954266;29;20042;-72
2022/07/12 09:40:46;;;;;;;5.05;3.85;;;;;;;22.25;66.84;102317.47;4938863;28;20036;-73
2022/07/12 09:43:14;;;;;;;8.45;4.15;;;;;;;22.21;64.63;102310.84;4934729;29;20032;-72
2022/07/12 09:45:39;;;;;;;8.38;4.10;;;;;;;22.16;64.00;102315.50;4935233;29;20038;-73
2022/07/12 09:48:08;;;;;;;5.70;3.72;;;;;;;22.15;64.00;102309.16;4935328;29;20032;-73
2022/07/12 09:50:35;;;;;;;4.30;3.90;;;;;;;22.16;65.33;102312.72;4941263;29;20112;-74
2022/07/12 09:53:03;;;;;;;5.60;3.08;;;;;;;22.25;64.04;102319.38;4954003;28;20039;-74
2022/07/12 09:55:32;;;;;;;5.13;2.60;;;;;;;22.26;62.71;102323.81;4953249;28;20416;-72
2022/07/12 09:58:01;;;;;;;5.63;2.72;;;;;;;22.44;64.41;102315.09;4950431;28;20035;-78
2022/07/12 10:00:27;;;;;;;4.40;3.28;;;;;;;22.48;62.55;102318.97;4952918;28;20027;-73
2022/07/12 10:02:55;;;;;;;3.47;3.10;;;;;;;22.43;61.53;102312.59;4953018;28;20035;-77
2022/07/12 10:05:23;;;;;;;8.45;2.92;;;;;;;22.42;61.90;102303.50;4959021;28;20035;-76
2022/07/12 10:07:48;;;;;;;5.63;3.28;;;;;;;22.52;62.89;102307.41;4940479;29;20548;-73
2022/07/12 10:10:13;;;;;;;4.45;3.13;;;;;;;22.61;62.90;102305.78;4961246;28;20099;-75
2022/07/12 10:12:40;;;;;;;4.03;3.10;;;;;;;22.68;61.67;102300.00;4939790;28;20024;-73
2022/07/12 10:15:13;;;;;;;9.63;3.42;;;;;;;22.72;61.86;102295.59;4934886;28;20467;-74
2022/07/12 10:17:44;;;;;;;5.20;3.13;;;;;;;22.79;61.99;102298.94;4937723;29;20036;-73
2022/07/12 10:20:24;;;;;;;3.83;3.50;;;;;;;22.81;61.40;102297.56;4950206;29;20399;-72
2022/07/12 10:23:10;;;;;;;5.13;3.30;;;;;;;22.80;60.64;102300.59;4949232;28;20032;-73
2022/07/12 10:25:36;;;;;;;3.35;3.05;;;;;;;22.96;60.27;102288.47;4949440;29;20035;-72
2022/07/12 10:28:02;;;;;;;4.43;2.97;;;;;;;23.01;60.11;102296.75;4934965;29;20031;-71
2022/07/12 10:30:28;;;;;;;5.07;3.00;;;;;;;23.04;59.83;102294.53;4933398;29;20102;-71
2022/07/12 10:32:57;;;;;;;3.00;2.80;;;;;;;23.18;60.49;102291.00;4948775;29;20491;-71
2022/07/12 10:35:25;;;;;;;6.60;3.42;;;;;;;23.40;61.09;102291.81;4938273;29;20023;-74
2022/07/12 10:38:12;;;;;;;7.35;3.85;;;;;;;23.54;61.74;102293.75;4937476;29;20063;-71
2022/07/12 10:40:39;;;;;;;6.35;4.13;;;;;;;23.59;59.57;102294.84;4936607;28;20383;-74
2022/07/12 10:43:04;;;;;;;4.18;3.78;;;;;;;23.62;59.14;102289.59;4937163;29;20027;-76
2022/07/12 10:45:34;;;;;;;6.70;3.20;;;;;;;23.64;59.28;102295.69;4936865;29;20466;-73
2022/07/12 10:48:01;;;;;;;4.88;3.20;;;;;;;23.63;58.08;102290.44;4939040;29;20307;-71
2022/07/12 10:50:42;;;;;;;6.63;3.17;;;;;;;23.62;58.57;102292.34;4954871;28;20027;-71
2022/07/12 10:53:42;;;;;;;4.93;3.70;;;;;;;23.68;59.49;102293.19;4956848;28;20106;-72
2022/07/12 10:56:27;;;;;;;4.40;3.97;;;;;;;23.69;57.59;102289.31;4937530;29;20024;-74
2022/07/12 10:58:57;;;;;;;7.95;3.85;;;;;;;23.78;56.02;102289.56;4937949;29;20301;-75
2022/07/12 11:01:30;;;;;;;6.57;3.47;;;;;;;23.85;55.98;102293.75;4945016;29;20039;-75
2022/07/12 11:04:04;;;;;;;5.43;2.90;;;;;;;23.96;56.40;102293.69;4956781;28;20027;-74
2022/07/12 11:06:29;;;;;;;3.50;2.28;;;;;;;24.05;55.71;102292.00;4955758;28;20394;-73
2022/07/12 11:09:00;;;;;;;4.03;2.33;;;;;;;24.09;55.25;102290.34;4937733;28;20059;-74
2022/07/12 11:11:31;;;;;;;4.05;3.20;;;;;;;24.11;54.82;102293.66;4937853;28;20031;-75
2022/07/12 11:13:57;;;;;;;3.10;2.80;;;;;;;24.24;56.64;102283.91;4937722;29;20040;-74
2022/07/12 11:16:24;;;;;;;4.10;2.72;;;;;;;24.39;56.89;102292.13;4940420;29;20102;-72
2022/07/12 11:18:49;;;;;;;6.85;3.60;;;;;;;24.45;54.54;102279.13;4956579;28;20138;-72
2022/07/12 11:21:15;;;;;;;4.13;3.20;;;;;;;24.42;53.98;102282.44;4953226;28;20161;-78
2022/07/12 11:23:42;;;;;;;5.20;2.88;;;;;;;24.43;53.77;102286.88;4948353;29;20494;-72
2022/07/12 11:26:08;;;;;;;3.80;2.50;;;;;;;24.62;56.29;102283.50;4946260;28;20526;-73
2022/07/12 11:28:33;;;;;;;4.15;2.80;;;;;;;24.75;55.05;102285.63;4957155;28;20029;-73
2022/07/12 11:31:25;;;;;;;7.32;3.35;;;;;;;24.84;55.54;102280.31;4956145;28;20027;-70